Airfield :
LOGIN :

Register | Disclaimer

   EN    FR    IT 

 










Legend :    VFR   Marginal VFR   IFR   Intensive IFR   Very Intensive IFR
Visi :
Ceiling :
>= 8 km
>= 3000ft
5 to 8 km
1000 to 3000 ft
1500m to 5 km
500 to 1000 ft
800 to 1500m
200 to 500 ft
< 800m
< 200 ft
Symbols :   Thunderstorms  Fog  Heavy snow  Heavy precipitations  Wind > 20 kt
SIGMETs :     Misc.  Thunderstorms  Icing  Turbulence  Mountain Waves  Volcanic Ashes






- Airport Elevation : 141 ft
- IATA code : SKS


EKSP - Srydstrup Vojens

CURRENT METAR :
  • 122050Z 29009KT 9999 FEW035 11/07 Q1019

EXPIRED METARs :
  • 122020Z 29009KT 9999 FEW035 12/07 Q1019
  • 121950Z 30014KT 9999 FEW035 12/06 Q1019
  • 121920Z 31012KT 9999 FEW035 SCT050 13/07 Q1018
  • 121850Z 30014KT 9999 FEW035 SCT050 13/07 Q1018
  • 121820Z 30017KT 9999 FEW035 14/07 Q1018

TAF TAF EKSP
Valid from the 12 at 21:00 until the 13 at 21:00 UTC


122008Z 1221/1321 30012KT 9999 SCT025
TEMPO 1221/1301 31015G25KT
TEMPO 1306/1316 31012G22KT
BECMG 1317/1320 25008KT



MET'MAP, your aeronautical weather chart ! - Copyright ORBIFLY December 2007 - Disclaimer

ORBIFLY MET'MAP TEAM :

Programming & Development : Alexandra Zaïnal
Concept & original design : Baudouin d'Aumeries
Assistance for programming : Marc-Olivier Méhu
Technical & hardware support : Manuel Goepfert

Contact : metmap@orbifly.com




SOURCES & CREDITS :

   NOAA